createdAt,value
2023-01-21T00:01:46.795Z,7.37
2023-01-21T00:04:16.245Z,8.27
2023-01-21T00:06:44.535Z,5.83
2023-01-21T00:09:41.773Z,5.77
2023-01-21T00:12:09.881Z,7.03
2023-01-21T00:14:38.085Z,6.13
2023-01-21T00:17:06.204Z,8.40
2023-01-21T00:19:35.589Z,7.97
2023-01-21T00:22:04.191Z,7.67
2023-01-21T00:24:32.244Z,6.43
2023-01-21T00:27:00.400Z,9.23
2023-01-21T00:29:28.439Z,7.73
2023-01-21T00:31:56.536Z,5.57
2023-01-21T00:34:24.627Z,8.23
2023-01-21T00:36:56.349Z,7.47
2023-01-21T00:39:24.648Z,6.83
2023-01-21T00:41:52.689Z,6.03
2023-01-21T00:44:20.752Z,6.83
2023-01-21T00:46:48.740Z,9.37
2023-01-21T00:49:17.203Z,6.63
2023-01-21T00:51:45.273Z,7.77
2023-01-21T00:54:14.899Z,6.77
2023-01-21T00:56:42.936Z,4.87
2023-01-21T00:59:11.113Z,6.03
2023-01-21T01:01:39.393Z,9.93
2023-01-21T01:04:08.057Z,7.90
2023-01-21T01:06:36.269Z,6.23
2023-01-21T01:09:04.852Z,6.70
2023-01-21T01:11:34.268Z,6.53
2023-01-21T01:14:02.318Z,7.47
2023-01-21T01:16:30.316Z,6.50
2023-01-21T01:18:58.328Z,9.13
2023-01-21T01:21:26.502Z,6.53
2023-01-21T01:23:54.741Z,7.17
2023-01-21T01:26:23.603Z,8.03
2023-01-21T01:28:53.847Z,7.83
2023-01-21T01:31:22.781Z,5.43
2023-01-21T01:33:50.944Z,7.20
2023-01-21T01:36:23.567Z,7.37
2023-01-21T01:38:52.758Z,7.67
2023-01-21T01:41:23.966Z,7.80
2023-01-21T01:43:58.790Z,7.93
2023-01-21T01:46:29.611Z,7.37
2023-01-21T01:49:13.271Z,7.20
2023-01-21T01:51:49.423Z,7.67
2023-01-21T01:54:23.272Z,9.27
2023-01-21T01:56:56.374Z,5.53
2023-01-21T01:59:26.463Z,7.10
2023-01-21T02:01:54.816Z,8.50
2023-01-21T02:04:28.490Z,6.80
2023-01-21T02:06:58.256Z,15.77
2023-01-21T02:09:29.819Z,7.53
2023-01-21T02:11:59.212Z,7.90
2023-01-21T02:14:29.352Z,10.00
2023-01-21T02:17:11.241Z,8.23
2023-01-21T02:20:24.280Z,9.17
2023-01-21T02:23:04.710Z,6.87
2023-01-21T02:26:15.226Z,7.47
2023-01-21T02:29:32.926Z,7.20
2023-01-21T02:32:40.409Z,6.00
2023-01-21T02:35:17.945Z,5.97
2023-01-21T02:37:54.017Z,7.70
2023-01-21T02:40:30.297Z,5.40
2023-01-21T02:43:07.506Z,8.87
2023-01-21T02:45:44.551Z,7.90
2023-01-21T02:48:18.030Z,5.33
2023-01-21T02:50:51.032Z,5.93
2023-01-21T02:53:27.270Z,8.23
2023-01-21T02:55:57.219Z,6.57
2023-01-21T02:58:29.884Z,6.43
2023-01-21T03:01:14.699Z,12.57
2023-01-21T03:04:31.318Z,6.80
2023-01-21T03:07:09.055Z,8.87
2023-01-21T03:09:38.098Z,9.07
2023-01-21T03:12:31.063Z,8.53
2023-01-21T03:15:23.268Z,8.90
2023-01-21T03:17:58.651Z,6.90
2023-01-21T03:20:30.158Z,11.23
2023-01-21T03:23:03.785Z,12.20
2023-01-21T03:25:35.132Z,19.03
2023-01-21T03:28:12.019Z,17.07
2023-01-21T03:30:44.797Z,11.73
2023-01-21T03:33:17.350Z,10.27
2023-01-21T03:35:49.831Z,11.27
2023-01-21T03:38:29.514Z,8.83
2023-01-21T03:41:04.264Z,10.23
2023-01-21T03:43:33.110Z,10.63
2023-01-21T03:46:08.090Z,10.60
2023-01-21T03:48:44.659Z,11.20
2023-01-21T03:51:19.607Z,10.20
2023-01-21T03:53:53.461Z,10.10
2023-01-21T03:56:21.514Z,7.23
2023-01-21T03:58:49.555Z,9.70
2023-01-21T04:01:17.685Z,11.93
2023-01-21T04:03:45.708Z,8.73
2023-01-21T04:06:15.804Z,6.47
2023-01-21T04:08:44.203Z,9.70
2023-01-21T04:11:13.657Z,7.43
2023-01-21T04:13:41.826Z,6.80
2023-01-21T04:16:10.579Z,7.70
2023-01-21T04:18:38.688Z,8.27
2023-01-21T04:21:06.786Z,6.47
2023-01-21T04:23:34.958Z,7.60
2023-01-21T04:26:04.173Z,9.30
2023-01-21T04:28:33.918Z,8.37
2023-01-21T04:31:02.148Z,8.13
2023-01-21T04:33:30.702Z,7.23
2023-01-21T04:35:59.971Z,10.97
2023-01-21T04:38:28.963Z,9.33
2023-01-21T04:40:57.085Z,12.70
2023-01-21T04:43:25.237Z,8.73
2023-01-21T04:45:54.757Z,7.50
2023-01-21T04:48:22.790Z,8.47
2023-01-21T04:50:51.970Z,7.50
2023-01-21T04:53:19.972Z,8.93
2023-01-21T04:55:48.008Z,6.73
2023-01-21T04:58:16.052Z,7.17
2023-01-21T05:00:44.103Z,7.43
2023-01-21T05:03:13.493Z,6.67
2023-01-21T05:05:41.542Z,6.70
2023-01-21T05:08:09.660Z,6.50
2023-01-21T05:10:37.721Z,7.23
2023-01-21T05:13:06.040Z,6.50
2023-01-21T05:15:34.176Z,4.53
2023-01-21T05:18:02.301Z,8.00
2023-01-21T05:20:31.692Z,4.77
2023-01-21T05:22:59.760Z,6.23
2023-01-21T05:25:27.840Z,8.63
2023-01-21T05:27:56.882Z,5.70
2023-01-21T05:30:24.919Z,5.13
2023-01-21T05:32:53.793Z,5.13
2023-01-21T05:35:23.586Z,7.80
2023-01-21T05:37:53.106Z,6.13
2023-01-21T05:40:21.467Z,5.07
2023-01-21T05:42:49.586Z,5.97
2023-01-21T05:45:17.878Z,7.90
2023-01-21T05:47:45.934Z,8.60
2023-01-21T05:50:14.372Z,10.50
2023-01-21T05:52:42.570Z,11.67
2023-01-21T05:55:12.082Z,9.93
2023-01-21T05:57:40.145Z,9.27
2023-01-21T06:00:11.255Z,10.53
2023-01-21T06:02:39.431Z,12.73
2023-01-21T06:05:08.781Z,14.77
2023-01-21T06:07:36.839Z,12.77
2023-01-21T06:10:06.104Z,15.47
2023-01-21T06:12:35.543Z,17.53
2023-01-21T06:15:03.719Z,18.50
2023-01-21T06:17:31.777Z,16.63
2023-01-21T06:19:59.853Z,18.77
2023-01-21T06:22:27.923Z,23.53
2023-01-21T06:24:55.971Z,17.67
2023-01-21T06:27:24.066Z,18.63
2023-01-21T06:29:53.860Z,17.67
2023-01-21T06:32:22.444Z,20.87
2023-01-21T06:34:50.640Z,20.60
2023-01-21T06:37:18.728Z,22.13
2023-01-21T06:39:49.709Z,21.57
2023-01-21T06:42:18.569Z,18.17
2023-01-21T06:44:49.233Z,21.67
2023-01-21T06:47:18.796Z,20.77
2023-01-21T06:49:47.059Z,18.30
2023-01-21T06:52:15.285Z,21.67
2023-01-21T06:54:44.180Z,26.07
2023-01-21T06:57:12.828Z,20.90
2023-01-21T06:59:41.218Z,23.67
2023-01-21T07:02:13.248Z,21.20
2023-01-21T07:04:42.737Z,21.13
2023-01-21T07:07:10.927Z,23.50
2023-01-21T07:09:41.953Z,22.60
2023-01-21T07:12:10.214Z,23.53
2023-01-21T07:14:38.421Z,21.00
2023-01-21T07:17:06.776Z,25.37
2023-01-21T07:19:34.920Z,22.10
2023-01-21T07:22:04.563Z,18.20
2023-01-21T07:24:32.703Z,21.80
2023-01-21T07:27:00.833Z,18.10
2023-01-21T07:29:29.434Z,20.73
2023-01-21T07:31:57.582Z,18.63
2023-01-21T07:34:25.776Z,19.60
2023-01-21T07:36:54.101Z,22.90
2023-01-21T07:39:23.763Z,19.33
2023-01-21T07:41:52.045Z,27.80
2023-01-21T07:44:20.242Z,21.80
2023-01-21T07:46:48.524Z,21.50
2023-01-21T07:49:18.368Z,21.80
2023-01-21T07:51:47.186Z,20.37
2023-01-21T07:54:16.296Z,25.23
2023-01-21T07:56:45.784Z,19.63
2023-01-21T07:59:15.123Z,18.30
2023-01-21T08:01:43.441Z,18.30
2023-01-21T08:04:11.692Z,19.27
2023-01-21T08:06:41.316Z,20.47
2023-01-21T08:09:10.486Z,19.20
2023-01-21T08:11:38.672Z,21.07
2023-01-21T08:14:08.332Z,17.47
2023-01-21T08:16:36.520Z,17.80
2023-01-21T08:19:04.591Z,17.07
2023-01-21T08:21:35.074Z,18.77
2023-01-21T08:24:03.198Z,18.23
2023-01-21T08:26:31.336Z,15.80
2023-01-21T08:28:59.512Z,17.27
2023-01-21T08:31:29.318Z,17.63
2023-01-21T08:33:57.890Z,18.17
2023-01-21T08:36:26.208Z,15.47
2023-01-21T08:38:54.906Z,18.10
2023-01-21T08:41:23.094Z,19.67
2023-01-21T08:43:51.183Z,17.93
2023-01-21T08:46:19.541Z,17.30
2023-01-21T08:48:49.059Z,16.37
2023-01-21T08:51:17.263Z,15.93
2023-01-21T08:53:45.368Z,19.43
2023-01-21T08:56:13.502Z,17.07
2023-01-21T08:58:41.800Z,15.87
2023-01-21T09:01:12.662Z,16.07
2023-01-21T09:03:41.128Z,18.07
2023-01-21T09:06:12.817Z,15.83
2023-01-21T09:08:42.076Z,15.00
2023-01-21T09:11:12.335Z,15.97
2023-01-21T09:13:40.949Z,22.47
2023-01-21T09:16:12.505Z,19.87
2023-01-21T09:18:41.253Z,20.53
2023-01-21T09:21:12.735Z,20.13
2023-01-21T09:23:42.066Z,15.73
2023-01-21T09:26:17.706Z,15.70
2023-01-21T09:28:52.086Z,19.57
2023-01-21T09:31:28.167Z,13.87
2023-01-21T09:33:59.132Z,19.60
2023-01-21T09:36:31.414Z,16.27
2023-01-21T09:39:06.446Z,12.50
2023-01-21T09:42:03.801Z,10.27
2023-01-21T09:44:45.383Z,12.93
2023-01-21T09:47:24.328Z,13.13
2023-01-21T09:53:30.677Z,13.80
2023-01-21T09:56:29.753Z,11.70
2023-01-21T10:02:35.401Z,17.50
2023-01-21T10:05:40.150Z,14.07
2023-01-21T10:08:19.904Z,17.60
2023-01-21T10:10:53.618Z,17.07
2023-01-21T10:13:58.310Z,13.77
2023-01-21T10:16:57.814Z,11.70
2023-01-21T10:19:36.711Z,15.07
2023-01-21T10:23:21.377Z,15.03
2023-01-21T10:26:44.033Z,11.80
2023-01-21T10:29:17.867Z,16.90
2023-01-21T10:31:59.732Z,12.57
2023-01-21T10:34:32.279Z,18.83
2023-01-21T10:37:14.905Z,16.20
2023-01-21T10:39:56.219Z,14.83
2023-01-21T10:42:58.384Z,18.73
2023-01-21T10:45:39.007Z,13.30
2023-01-21T10:48:38.173Z,15.90
2023-01-21T10:51:17.818Z,15.83
2023-01-21T10:53:54.087Z,14.33
2023-01-21T10:56:36.476Z,18.43
2023-01-21T10:59:11.765Z,12.83
2023-01-21T11:01:44.521Z,12.60
2023-01-21T11:04:21.219Z,13.80
2023-01-21T11:06:58.865Z,15.50
2023-01-21T11:09:29.586Z,12.87
2023-01-21T11:12:22.094Z,14.97
2023-01-21T11:15:20.192Z,14.80
2023-01-21T11:17:53.640Z,15.47
2023-01-21T11:20:29.358Z,14.10
2023-01-21T11:22:57.524Z,18.30
2023-01-21T11:25:32.246Z,13.57
2023-01-21T11:28:00.339Z,17.30
2023-01-21T11:30:50.169Z,15.03
2023-01-21T11:33:28.022Z,19.03
2023-01-21T11:35:58.351Z,12.80
2023-01-21T11:38:34.375Z,14.23
2023-01-21T11:41:15.000Z,16.20
2023-01-21T11:43:46.428Z,12.63
2023-01-21T11:46:31.323Z,12.53
2023-01-21T11:49:30.648Z,14.90
2023-01-21T11:52:19.930Z,17.77
2023-01-21T11:54:49.318Z,10.83
2023-01-21T11:57:31.132Z,11.37
2023-01-21T12:00:08.566Z,13.40
2023-01-21T12:02:47.598Z,15.57
2023-01-21T12:05:29.759Z,14.07
2023-01-21T12:07:58.786Z,11.67
2023-01-21T12:10:33.923Z,13.80
2023-01-21T12:13:23.271Z,12.13
2023-01-21T12:16:34.606Z,19.63
2023-01-21T12:19:51.224Z,10.97
2023-01-21T12:22:36.030Z,14.23
2023-01-21T12:25:31.725Z,10.33
2023-01-21T12:28:18.634Z,18.57
2023-01-21T12:31:00.109Z,12.10
2023-01-21T12:33:48.235Z,15.50
2023-01-21T12:36:25.852Z,13.17
2023-01-21T12:39:12.920Z,11.60
2023-01-21T12:41:44.520Z,16.83
2023-01-21T12:44:28.506Z,15.13
2023-01-21T12:47:07.933Z,15.67
2023-01-21T12:50:09.536Z,14.37
2023-01-21T12:52:55.139Z,12.97
2023-01-21T12:55:37.888Z,15.27
2023-01-21T12:58:12.588Z,13.13
2023-01-21T13:00:46.509Z,10.47
2023-01-21T13:03:27.718Z,13.90
2023-01-21T13:06:01.767Z,13.20
2023-01-21T13:08:54.205Z,16.70
2023-01-21T13:11:27.390Z,13.07
2023-01-21T13:14:18.429Z,13.57
2023-01-21T13:16:54.086Z,13.90
2023-01-21T13:19:22.243Z,12.23
2023-01-21T13:22:15.214Z,17.20
2023-01-21T13:25:05.700Z,17.47
2023-01-21T13:27:44.496Z,13.70
2023-01-21T13:30:29.650Z,16.03
2023-01-21T13:33:22.883Z,14.50
2023-01-21T13:36:05.636Z,16.23
2023-01-21T13:38:42.537Z,13.30
2023-01-21T13:41:29.737Z,11.73
2023-01-21T13:44:48.662Z,14.70
2023-01-21T13:47:32.033Z,11.80
2023-01-21T13:50:23.389Z,13.50
2023-01-21T13:53:27.392Z,11.13
2023-01-21T13:56:13.322Z,13.10
2023-01-21T13:58:50.226Z,13.90
2023-01-21T14:01:25.283Z,17.40
2023-01-21T14:04:02.017Z,13.07
2023-01-21T14:06:43.370Z,13.57
2023-01-21T14:09:20.750Z,12.93
2023-01-21T14:11:57.278Z,13.53
2023-01-21T14:14:52.473Z,13.27
2023-01-21T14:17:45.828Z,14.43
2023-01-21T14:20:56.827Z,11.20
2023-01-21T14:24:05.129Z,11.83
2023-01-21T14:27:03.200Z,12.03
2023-01-21T14:29:41.883Z,11.63
2023-01-21T14:32:17.542Z,11.73
2023-01-21T14:34:56.739Z,12.87
2023-01-21T14:37:33.171Z,11.10
2023-01-21T14:40:17.531Z,17.30
2023-01-21T14:42:49.279Z,11.90
2023-01-21T14:45:22.501Z,11.10
2023-01-21T14:47:53.247Z,15.00
2023-01-21T14:50:51.834Z,12.57
2023-01-21T14:53:26.652Z,12.93
2023-01-21T14:56:10.662Z,13.63
2023-01-21T14:58:40.176Z,12.77
2023-01-21T15:01:25.159Z,15.50
2023-01-21T15:03:53.653Z,13.10
2023-01-21T15:06:24.713Z,11.60
2023-01-21T15:08:57.194Z,13.80
2023-01-21T15:11:31.527Z,13.33
2023-01-21T15:14:11.353Z,12.27
2023-01-21T15:16:42.760Z,13.57
2023-01-21T15:19:30.705Z,12.37
2023-01-21T15:22:38.849Z,11.87
2023-01-21T15:25:37.106Z,13.33
2023-01-21T15:28:44.221Z,10.73
2023-01-21T15:31:30.470Z,14.53
2023-01-21T15:34:03.515Z,13.03
2023-01-21T15:36:38.840Z,11.73
2023-01-21T15:39:16.461Z,12.20
2023-01-21T15:41:58.640Z,14.37
2023-01-21T15:44:48.410Z,13.03
2023-01-21T15:47:37.853Z,11.13
2023-01-21T15:50:21.483Z,9.87
2023-01-21T15:53:14.066Z,9.33
2023-01-21T15:56:04.159Z,10.67
2023-01-21T15:58:46.009Z,14.03
2023-01-21T16:01:25.857Z,21.10
2023-01-21T16:04:13.962Z,14.27
2023-01-21T16:06:58.201Z,12.67
2023-01-21T16:09:36.932Z,10.27
2023-01-21T16:12:19.846Z,8.77
2023-01-21T16:15:01.216Z,12.50
2023-01-21T16:17:47.347Z,9.53
2023-01-21T16:20:17.327Z,9.03
2023-01-21T16:22:51.988Z,9.93
2023-01-21T16:25:25.402Z,11.27
2023-01-21T16:27:56.050Z,11.93
2023-01-21T16:30:30.774Z,11.97
2023-01-21T16:33:11.488Z,9.20
2023-01-21T16:35:48.498Z,8.90
2023-01-21T16:38:21.689Z,12.60
2023-01-21T16:40:51.465Z,12.60
2023-01-21T16:43:25.993Z,10.30
2023-01-21T16:45:56.437Z,11.57
2023-01-21T16:48:27.205Z,8.87
2023-01-21T16:50:59.261Z,10.37
2023-01-21T16:53:31.127Z,9.23
2023-01-21T16:56:00.560Z,8.73
2023-01-21T16:58:32.387Z,9.77
2023-01-21T17:01:11.164Z,8.77
2023-01-21T17:03:45.048Z,8.97
2023-01-21T17:06:21.072Z,11.63
2023-01-21T17:08:55.593Z,9.93
2023-01-21T17:11:24.512Z,8.83
2023-01-21T17:13:53.883Z,12.63
2023-01-21T17:16:31.103Z,12.00
2023-01-21T17:19:02.424Z,10.87
2023-01-21T17:21:39.452Z,12.33
2023-01-21T17:24:18.979Z,14.23
2023-01-21T17:26:52.906Z,9.30
2023-01-21T17:29:26.646Z,9.63
2023-01-21T17:31:59.631Z,10.07
2023-01-21T17:34:30.194Z,9.93
2023-01-21T17:36:59.050Z,9.90
2023-01-21T17:40:01.647Z,9.80
2023-01-21T17:42:44.453Z,8.70
2023-01-21T17:45:31.580Z,8.63
2023-01-21T17:48:09.457Z,8.50
2023-01-21T17:50:38.621Z,8.80
2023-01-21T17:53:18.644Z,11.73
2023-01-21T17:56:01.605Z,8.33
2023-01-21T17:58:49.651Z,10.30
2023-01-21T18:01:19.683Z,10.67
2023-01-21T18:03:47.809Z,7.97
2023-01-21T18:06:23.573Z,11.13
2023-01-21T18:08:52.778Z,7.87
2023-01-21T18:11:24.712Z,10.60
2023-01-21T18:13:53.162Z,8.10
2023-01-21T18:16:21.380Z,10.53
2023-01-21T18:18:50.487Z,11.57
2023-01-21T18:21:21.628Z,13.17
2023-01-21T18:23:50.572Z,12.00
2023-01-21T18:26:28.095Z,12.83
2023-01-21T18:28:56.211Z,12.67
2023-01-21T18:31:24.866Z,15.30
2023-01-21T18:33:53.027Z,12.70
2023-01-21T18:36:21.111Z,13.43
2023-01-21T18:38:49.197Z,15.80
2023-01-21T18:41:17.426Z,19.63
2023-01-21T18:43:46.921Z,15.93
2023-01-21T18:46:16.294Z,16.83
2023-01-21T18:48:44.500Z,15.90
2023-01-21T18:51:14.405Z,16.90
2023-01-21T18:53:42.683Z,17.77
2023-01-21T18:56:15.449Z,17.43
2023-01-21T18:58:43.900Z,17.73
2023-01-21T19:01:22.940Z,18.00
2023-01-21T19:03:54.852Z,19.07
2023-01-21T19:06:24.684Z,16.37
2023-01-21T19:08:54.897Z,18.23
2023-01-21T19:11:23.065Z,19.07
2023-01-21T19:13:51.116Z,21.00
2023-01-21T19:16:21.953Z,16.67
2023-01-21T19:18:50.312Z,20.30
2023-01-21T19:21:18.812Z,25.27
2023-01-21T19:23:47.160Z,19.70
2023-01-21T19:26:15.473Z,17.23
2023-01-21T19:28:43.708Z,24.33
2023-01-21T19:31:11.988Z,20.70
2023-01-21T19:33:45.398Z,13.30
2023-01-21T19:36:16.333Z,16.17
2023-01-21T19:38:54.707Z,12.50
2023-01-21T19:41:23.114Z,12.93
2023-01-21T19:43:51.553Z,14.50
2023-01-21T19:46:20.356Z,14.93
2023-01-21T19:48:50.522Z,13.10
2023-01-21T19:51:18.823Z,11.17
2023-01-21T19:53:47.111Z,16.83
2023-01-21T19:56:21.566Z,11.30
2023-01-21T19:58:51.242Z,11.63
2023-01-21T20:01:19.384Z,13.20
2023-01-21T20:03:59.728Z,12.40
2023-01-21T20:06:40.255Z,12.77
2023-01-21T20:09:11.458Z,12.13
2023-01-21T20:11:39.805Z,11.97
2023-01-21T20:14:08.137Z,13.90
2023-01-21T20:16:46.596Z,10.93
2023-01-21T20:19:19.103Z,12.83
2023-01-21T20:21:59.850Z,12.60
2023-01-21T20:24:30.318Z,19.03
2023-01-21T20:27:03.363Z,14.77
2023-01-21T20:29:31.785Z,15.10
2023-01-21T20:31:59.981Z,9.87
2023-01-21T20:34:32.027Z,12.70
2023-01-21T20:37:00.371Z,12.43
2023-01-21T20:39:28.512Z,14.60
2023-01-21T20:41:56.660Z,15.00
2023-01-21T20:44:25.123Z,11.63
2023-01-21T20:46:53.580Z,15.07
2023-01-21T20:49:21.595Z,14.70
2023-01-21T20:51:51.249Z,12.77
2023-01-21T20:54:19.327Z,12.27
2023-01-21T20:56:48.207Z,12.80
2023-01-21T20:59:18.383Z,12.90
2023-01-21T21:01:47.122Z,15.07
2023-01-21T21:04:15.297Z,14.03
2023-01-21T21:06:46.433Z,13.70
2023-01-21T21:09:16.386Z,12.87
2023-01-21T21:11:44.522Z,13.40
2023-01-21T21:14:15.025Z,11.90
2023-01-21T21:16:45.347Z,12.63
2023-01-21T21:19:13.859Z,17.80
2023-01-21T21:21:41.915Z,11.03
2023-01-21T21:24:10.050Z,11.43
2023-01-21T21:26:40.851Z,12.87
2023-01-21T21:29:13.225Z,11.97
2023-01-21T21:31:41.294Z,12.43
2023-01-21T21:34:10.591Z,8.60
2023-01-21T21:36:38.729Z,15.47
2023-01-21T21:39:07.232Z,10.27
2023-01-21T21:41:52.693Z,12.67
2023-01-21T21:44:22.113Z,9.67
2023-01-21T21:47:07.660Z,11.90
2023-01-21T21:49:35.717Z,9.20
2023-01-21T21:52:06.902Z,11.17
2023-01-21T21:54:34.984Z,12.80
2023-01-21T21:57:03.104Z,13.53
2023-01-21T21:59:32.470Z,11.97
2023-01-21T22:02:00.807Z,11.77
2023-01-21T22:04:28.919Z,10.43
2023-01-21T22:06:57.027Z,12.70
2023-01-21T22:09:25.105Z,12.70
2023-01-21T22:11:53.150Z,11.77
2023-01-21T22:14:21.287Z,11.60
2023-01-21T22:16:51.988Z,12.07
2023-01-21T22:19:20.153Z,11.13
2023-01-21T22:21:48.247Z,13.53
2023-01-21T22:24:16.890Z,12.83
2023-01-21T22:26:45.089Z,10.03
2023-01-21T22:29:13.876Z,10.20
2023-01-21T22:31:42.183Z,8.43
2023-01-21T22:34:12.802Z,9.23
2023-01-21T22:36:42.090Z,10.23
2023-01-21T22:39:12.488Z,9.93
2023-01-21T22:41:40.605Z,9.60
2023-01-21T22:44:08.712Z,11.57
2023-01-21T22:46:36.888Z,9.67
2023-01-21T22:49:05.009Z,9.23
2023-01-21T22:51:34.485Z,10.23
2023-01-21T22:54:07.479Z,8.63
2023-01-21T22:56:51.041Z,7.60
2023-01-21T22:59:20.483Z,10.37
2023-01-21T23:01:51.014Z,10.57
2023-01-21T23:04:19.276Z,8.10
2023-01-21T23:06:51.096Z,8.13
2023-01-21T23:09:19.275Z,9.27
2023-01-21T23:11:47.380Z,9.50
2023-01-21T23:14:16.521Z,10.83
2023-01-21T23:16:44.646Z,10.87
2023-01-21T23:19:17.728Z,8.80
2023-01-21T23:21:45.764Z,9.23
2023-01-21T23:24:15.193Z,10.37
2023-01-21T23:26:43.330Z,8.57
2023-01-21T23:29:12.350Z,9.83
2023-01-21T23:31:40.510Z,9.47
2023-01-21T23:34:08.681Z,8.50
2023-01-21T23:36:36.740Z,9.47
2023-01-21T23:39:05.211Z,9.57
2023-01-21T23:41:34.672Z,9.23
2023-01-21T23:44:03.558Z,9.47
2023-01-21T23:46:32.193Z,12.00
2023-01-21T23:49:00.283Z,9.47
2023-01-21T23:51:28.783Z,11.03
2023-01-21T23:53:57.731Z,11.90
2023-01-21T23:56:26.878Z,13.43
2023-01-21T23:58:56.651Z,11.07
